sensor_id;sensor_type;location;lat;lon;timestamp;temperature;humidity
44229;DHT22;29904;51.058;5.378;2023-05-18T00:00:36;8.60;99.90
44229;DHT22;29904;51.058;5.378;2023-05-18T00:03:02;8.60;99.90
44229;DHT22;29904;51.058;5.378;2023-05-18T00:05:28;8.50;99.90
44229;DHT22;29904;51.058;5.378;2023-05-18T00:07:59;8.50;99.90
44229;DHT22;29904;51.058;5.378;2023-05-18T00:10:25;8.50;99.90
44229;DHT22;29904;51.058;5.378;2023-05-18T00:12:51;8.50;99.90
44229;DHT22;29904;51.058;5.378;2023-05-18T00:15:17;8.50;99.90
44229;DHT22;29904;51.058;5.378;2023-05-18T00:17:43;8.40;99.90
44229;DHT22;29904;51.058;5.378;2023-05-18T00:20:10;8.40;99.90
44229;DHT22;29904;51.058;5.378;2023-05-18T00:22:37;8.40;99.90
44229;DHT22;29904;51.058;5.378;2023-05-18T00:25:07;8.40;99.90
44229;DHT22;29904;51.058;5.378;2023-05-18T00:27:33;8.30;99.90
44229;DHT22;29904;51.058;5.378;2023-05-18T00:29:58;8.30;99.90
44229;DHT22;29904;51.058;5.378;2023-05-18T00:32:24;8.30;99.90
44229;DHT22;29904;51.058;5.378;2023-05-18T00:34:50;8.20;99.90
44229;DHT22;29904;51.058;5.378;2023-05-18T00:37:16;8.20;99.90
44229;DHT22;29904;51.058;5.378;2023-05-18T00:39:41;8.10;99.90
44229;DHT22;29904;51.058;5.378;2023-05-18T00:42:07;8.10;99.90
44229;DHT22;29904;51.058;5.378;2023-05-18T00:44:33;8.10;99.90
44229;DHT22;29904;51.058;5.378;2023-05-18T00:46:58;8.00;99.90
44229;DHT22;29904;51.058;5.378;2023-05-18T00:49:25;8.00;99.90
44229;DHT22;29904;51.058;5.378;2023-05-18T00:51:51;8.00;99.90
44229;DHT22;29904;51.058;5.378;2023-05-18T00:54:17;7.90;99.90
44229;DHT22;29904;51.058;5.378;2023-05-18T00:56:45;7.90;99.90
44229;DHT22;29904;51.058;5.378;2023-05-18T00:59:13;7.90;99.90
44229;DHT22;29904;51.058;5.378;2023-05-18T01:01:38;7.90;99.90
44229;DHT22;29904;51.058;5.378;2023-05-18T01:04:11;7.80;99.90
44229;DHT22;29904;51.058;5.378;2023-05-18T01:06:39;7.80;99.90
44229;DHT22;29904;51.058;5.378;2023-05-18T01:09:09;7.80;99.90
44229;DHT22;29904;51.058;5.378;2023-05-18T01:12:11;7.70;99.90
44229;DHT22;29904;51.058;5.378;2023-05-18T01:15:17;7.70;99.90
44229;DHT22;29904;51.058;5.378;2023-05-18T01:18:22;7.70;99.90
44229;DHT22;29904;51.058;5.378;2023-05-18T01:26:51;7.50;99.90
44229;DHT22;29904;51.058;5.378;2023-05-18T01:29:24;7.50;99.90
44229;DHT22;29904;51.058;5.378;2023-05-18T01:31:50;7.50;99.90
44229;DHT22;29904;51.058;5.378;2023-05-18T01:34:16;7.40;99.90
44229;DHT22;29904;51.058;5.378;2023-05-18T01:36:42;7.40;99.90
44229;DHT22;29904;51.058;5.378;2023-05-18T01:39:08;7.40;99.90
44229;DHT22;29904;51.058;5.378;2023-05-18T01:41:36;7.40;99.90
44229;DHT22;29904;51.058;5.378;2023-05-18T01:44:35;7.40;99.90
44229;DHT22;29904;51.058;5.378;2023-05-18T01:47:12;7.30;99.90
44229;DHT22;29904;51.058;5.378;2023-05-18T01:50:02;7.30;99.90
44229;DHT22;29904;51.058;5.378;2023-05-18T01:55:09;7.30;99.90
44229;DHT22;29904;51.058;5.378;2023-05-18T01:57:38;7.30;99.90
44229;DHT22;29904;51.058;5.378;2023-05-18T02:00:06;7.30;99.90
44229;DHT22;29904;51.058;5.378;2023-05-18T02:02:34;7.20;99.90
44229;DHT22;29904;51.058;5.378;2023-05-18T02:05:00;7.20;99.90
44229;DHT22;29904;51.058;5.378;2023-05-18T02:07:26;7.20;99.90
44229;DHT22;29904;51.058;5.378;2023-05-18T02:09:52;7.20;99.90
44229;DHT22;29904;51.058;5.378;2023-05-18T02:12:18;7.10;99.90
44229;DHT22;29904;51.058;5.378;2023-05-18T02:14:44;7.10;99.90
44229;DHT22;29904;51.058;5.378;2023-05-18T02:17:09;7.10;99.90
44229;DHT22;29904;51.058;5.378;2023-05-18T02:19:36;7.10;99.90
44229;DHT22;29904;51.058;5.378;2023-05-18T02:22:06;7.00;99.90
44229;DHT22;29904;51.058;5.378;2023-05-18T02:24:33;7.00;99.90
44229;DHT22;29904;51.058;5.378;2023-05-18T02:26:58;7.00;99.90
44229;DHT22;29904;51.058;5.378;2023-05-18T02:29:25;7.00;99.90
44229;DHT22;29904;51.058;5.378;2023-05-18T02:31:51;6.90;99.90
44229;DHT22;29904;51.058;5.378;2023-05-18T02:34:17;6.90;99.90
44229;DHT22;29904;51.058;5.378;2023-05-18T02:36:44;6.90;99.90
44229;DHT22;29904;51.058;5.378;2023-05-18T02:39:10;6.90;99.90
44229;DHT22;29904;51.058;5.378;2023-05-18T02:41:37;6.90;99.90
44229;DHT22;29904;51.058;5.378;2023-05-18T02:44:03;6.90;99.90
44229;DHT22;29904;51.058;5.378;2023-05-18T02:46:30;6.90;99.90
44229;DHT22;29904;51.058;5.378;2023-05-18T02:48:57;6.80;99.90
44229;DHT22;29904;51.058;5.378;2023-05-18T02:51:23;6.80;99.90
44229;DHT22;29904;51.058;5.378;2023-05-18T02:53:50;6.80;99.90
44229;DHT22;29904;51.058;5.378;2023-05-18T02:56:16;6.80;99.90
44229;DHT22;29904;51.058;5.378;2023-05-18T02:58:44;6.80;99.90
44229;DHT22;29904;51.058;5.378;2023-05-18T03:01:10;6.80;99.90
44229;DHT22;29904;51.058;5.378;2023-05-18T03:03:37;6.70;99.90
44229;DHT22;29904;51.058;5.378;2023-05-18T03:06:04;6.70;99.90
44229;DHT22;29904;51.058;5.378;2023-05-18T03:08:32;6.70;99.90
44229;DHT22;29904;51.058;5.378;2023-05-18T03:10:58;6.70;99.90
44229;DHT22;29904;51.058;5.378;2023-05-18T03:13:24;6.70;99.90
44229;DHT22;29904;51.058;5.378;2023-05-18T03:15:50;6.70;99.90
44229;DHT22;29904;51.058;5.378;2023-05-18T03:18:19;6.70;99.90
44229;DHT22;29904;51.058;5.378;2023-05-18T03:20:44;6.70;99.90
44229;DHT22;29904;51.058;5.378;2023-05-18T03:23:10;6.70;99.90
44229;DHT22;29904;51.058;5.378;2023-05-18T03:25:36;6.70;99.90
44229;DHT22;29904;51.058;5.378;2023-05-18T03:28:03;6.70;99.90
44229;DHT22;29904;51.058;5.378;2023-05-18T03:30:33;6.70;99.90
44229;DHT22;29904;51.058;5.378;2023-05-18T03:33:00;6.70;99.90
44229;DHT22;29904;51.058;5.378;2023-05-18T03:35:26;6.60;99.90
44229;DHT22;29904;51.058;5.378;2023-05-18T03:37:52;6.60;99.90
44229;DHT22;29904;51.058;5.378;2023-05-18T03:40:18;6.60;99.90
44229;DHT22;29904;51.058;5.378;2023-05-18T03:42:44;6.60;99.90
44229;DHT22;29904;51.058;5.378;2023-05-18T03:45:10;6.60;99.90
44229;DHT22;29904;51.058;5.378;2023-05-18T03:47:37;6.60;99.90
44229;DHT22;29904;51.058;5.378;2023-05-18T03:50:04;6.60;99.90
44229;DHT22;29904;51.058;5.378;2023-05-18T03:52:30;6.60;99.90
44229;DHT22;29904;51.058;5.378;2023-05-18T03:54:59;6.60;99.90
44229;DHT22;29904;51.058;5.378;2023-05-18T03:57:25;6.60;99.90
44229;DHT22;29904;51.058;5.378;2023-05-18T03:59:51;6.60;99.90
44229;DHT22;29904;51.058;5.378;2023-05-18T04:02:17;6.60;99.90
44229;DHT22;29904;51.058;5.378;2023-05-18T04:04:42;6.60;99.90
44229;DHT22;29904;51.058;5.378;2023-05-18T04:07:15;6.60;99.90
44229;DHT22;29904;51.058;5.378;2023-05-18T04:09:41;6.70;99.90
44229;DHT22;29904;51.058;5.378;2023-05-18T04:12:07;6.70;99.90
44229;DHT22;29904;51.058;5.378;2023-05-18T04:14:33;6.70;99.90
44229;DHT22;29904;51.058;5.378;2023-05-18T04:16:59;6.70;99.90
44229;DHT22;29904;51.058;5.378;2023-05-18T04:19:32;6.70;99.90
44229;DHT22;29904;51.058;5.378;2023-05-18T04:21:58;6.80;99.90
44229;DHT22;29904;51.058;5.378;2023-05-18T04:24:24;6.80;99.90
44229;DHT22;29904;51.058;5.378;2023-05-18T04:26:52;6.90;99.90
44229;DHT22;29904;51.058;5.378;2023-05-18T04:29:18;6.90;99.90
44229;DHT22;29904;51.058;5.378;2023-05-18T04:31:43;6.90;99.90
44229;DHT22;29904;51.058;5.378;2023-05-18T04:34:12;6.90;99.90
44229;DHT22;29904;51.058;5.378;2023-05-18T04:36:38;7.00;99.90
44229;DHT22;29904;51.058;5.378;2023-05-18T04:39:08;7.00;99.90
44229;DHT22;29904;51.058;5.378;2023-05-18T04:41:34;7.10;99.90
44229;DHT22;29904;51.058;5.378;2023-05-18T04:44:00;7.10;99.90
44229;DHT22;29904;51.058;5.378;2023-05-18T04:46:26;7.10;99.90
44229;DHT22;29904;51.058;5.378;2023-05-18T04:48:53;7.20;99.90
44229;DHT22;29904;51.058;5.378;2023-05-18T04:51:22;7.30;99.90
44229;DHT22;29904;51.058;5.378;2023-05-18T04:53:52;7.30;99.90
44229;DHT22;29904;51.058;5.378;2023-05-18T04:56:18;7.40;99.90
44229;DHT22;29904;51.058;5.378;2023-05-18T04:58:50;7.40;99.90
44229;DHT22;29904;51.058;5.378;2023-05-18T05:01:16;7.50;99.90
44229;DHT22;29904;51.058;5.378;2023-05-18T05:03:42;7.60;99.90
44229;DHT22;29904;51.058;5.378;2023-05-18T05:06:08;7.60;99.90
44229;DHT22;29904;51.058;5.378;2023-05-18T05:08:34;7.60;99.90
44229;DHT22;29904;51.058;5.378;2023-05-18T05:11:00;7.60;99.90
44229;DHT22;29904;51.058;5.378;2023-05-18T05:13:26;7.70;99.90
44229;DHT22;29904;51.058;5.378;2023-05-18T05:15:52;7.70;99.90
44229;DHT22;29904;51.058;5.378;2023-05-18T05:18:18;7.70;99.90
44229;DHT22;29904;51.058;5.378;2023-05-18T05:20:44;7.80;99.90
44229;DHT22;29904;51.058;5.378;2023-05-18T05:23:09;7.80;99.90
44229;DHT22;29904;51.058;5.378;2023-05-18T05:25:35;7.90;99.90
44229;DHT22;29904;51.058;5.378;2023-05-18T05:28:01;7.90;99.90
44229;DHT22;29904;51.058;5.378;2023-05-18T05:30:26;7.90;99.90
44229;DHT22;29904;51.058;5.378;2023-05-18T05:32:52;7.90;99.90
44229;DHT22;29904;51.058;5.378;2023-05-18T05:35:18;8.00;99.90
44229;DHT22;29904;51.058;5.378;2023-05-18T05:37:44;8.00;99.90
44229;DHT22;29904;51.058;5.378;2023-05-18T05:40:10;8.10;99.90
44229;DHT22;29904;51.058;5.378;2023-05-18T05:42:35;8.30;99.90
44229;DHT22;29904;51.058;5.378;2023-05-18T05:45:01;8.30;99.90
44229;DHT22;29904;51.058;5.378;2023-05-18T05:47:27;8.40;99.90
44229;DHT22;29904;51.058;5.378;2023-05-18T05:49:53;8.40;99.90
44229;DHT22;29904;51.058;5.378;2023-05-18T05:52:19;8.50;99.90
44229;DHT22;29904;51.058;5.378;2023-05-18T05:54:45;8.60;99.90
44229;DHT22;29904;51.058;5.378;2023-05-18T05:57:10;8.60;99.90
44229;DHT22;29904;51.058;5.378;2023-05-18T05:59:36;8.70;99.90
44229;DHT22;29904;51.058;5.378;2023-05-18T06:02:02;8.80;99.90
44229;DHT22;29904;51.058;5.378;2023-05-18T06:04:28;8.90;99.90
44229;DHT22;29904;51.058;5.378;2023-05-18T06:06:54;9.00;99.90
44229;DHT22;29904;51.058;5.378;2023-05-18T06:09:19;9.00;99.90
44229;DHT22;29904;51.058;5.378;2023-05-18T06:11:45;9.10;99.90
44229;DHT22;29904;51.058;5.378;2023-05-18T06:14:11;9.20;99.90
44229;DHT22;29904;51.058;5.378;2023-05-18T06:16:37;9.30;99.90
44229;DHT22;29904;51.058;5.378;2023-05-18T06:19:03;9.50;99.90
44229;DHT22;29904;51.058;5.378;2023-05-18T06:21:28;9.70;99.90
44229;DHT22;29904;51.058;5.378;2023-05-18T06:23:54;9.70;99.90
44229;DHT22;29904;51.058;5.378;2023-05-18T06:26:21;9.80;99.90
44229;DHT22;29904;51.058;5.378;2023-05-18T06:28:47;10.00;99.90
44229;DHT22;29904;51.058;5.378;2023-05-18T06:31:14;10.10;99.90
44229;DHT22;29904;51.058;5.378;2023-05-18T06:33:40;10.20;99.90
44229;DHT22;29904;51.058;5.378;2023-05-18T06:36:06;10.30;99.90
44229;DHT22;29904;51.058;5.378;2023-05-18T06:38:32;10.50;99.90
44229;DHT22;29904;51.058;5.378;2023-05-18T06:40:57;10.70;99.90
44229;DHT22;29904;51.058;5.378;2023-05-18T06:43:23;10.90;99.90
44229;DHT22;29904;51.058;5.378;2023-05-18T06:45:51;11.60;99.90
44229;DHT22;29904;51.058;5.378;2023-05-18T06:48:17;12.00;99.90
44229;DHT22;29904;51.058;5.378;2023-05-18T06:50:42;12.20;99.90
44229;DHT22;29904;51.058;5.378;2023-05-18T06:53:08;12.40;99.90
44229;DHT22;29904;51.058;5.378;2023-05-18T06:55:34;12.70;99.90
44229;DHT22;29904;51.058;5.378;2023-05-18T06:58:00;12.90;99.90
44229;DHT22;29904;51.058;5.378;2023-05-18T07:00:26;13.10;99.90
44229;DHT22;29904;51.058;5.378;2023-05-18T07:02:52;13.00;99.90
44229;DHT22;29904;51.058;5.378;2023-05-18T07:05:18;13.00;99.90
44229;DHT22;29904;51.058;5.378;2023-05-18T07:07:44;13.00;99.90
44229;DHT22;29904;51.058;5.378;2023-05-18T07:10:09;12.90;99.90
44229;DHT22;29904;51.058;5.378;2023-05-18T07:12:35;13.00;99.90
44229;DHT22;29904;51.058;5.378;2023-05-18T07:15:01;13.10;99.90
44229;DHT22;29904;51.058;5.378;2023-05-18T07:17:28;13.30;99.90
44229;DHT22;29904;51.058;5.378;2023-05-18T07:19:54;13.20;99.90
44229;DHT22;29904;51.058;5.378;2023-05-18T07:22:20;13.30;99.90
44229;DHT22;29904;51.058;5.378;2023-05-18T07:24:45;13.30;99.90
44229;DHT22;29904;51.058;5.378;2023-05-18T07:27:11;13.20;99.90
44229;DHT22;29904;51.058;5.378;2023-05-18T07:29:37;13.10;99.90
44229;DHT22;29904;51.058;5.378;2023-05-18T07:32:03;13.10;99.90
44229;DHT22;29904;51.058;5.378;2023-05-18T07:34:28;13.30;99.90
44229;DHT22;29904;51.058;5.378;2023-05-18T07:36:54;13.30;99.90
44229;DHT22;29904;51.058;5.378;2023-05-18T07:39:20;13.30;99.90
44229;DHT22;29904;51.058;5.378;2023-05-18T07:41:53;13.40;99.90
44229;DHT22;29904;51.058;5.378;2023-05-18T07:44:19;13.50;99.90
44229;DHT22;29904;51.058;5.378;2023-05-18T07:46:46;13.50;99.90
44229;DHT22;29904;51.058;5.378;2023-05-18T07:49:13;13.40;99.90
44229;DHT22;29904;51.058;5.378;2023-05-18T07:51:41;13.60;99.90
44229;DHT22;29904;51.058;5.378;2023-05-18T07:54:09;14.10;99.90
44229;DHT22;29904;51.058;5.378;2023-05-18T07:56:35;14.70;99.90
44229;DHT22;29904;51.058;5.378;2023-05-18T07:59:01;15.20;99.90
44229;DHT22;29904;51.058;5.378;2023-05-18T08:01:27;15.30;99.90
44229;DHT22;29904;51.058;5.378;2023-05-18T08:03:55;15.30;99.90
44229;DHT22;29904;51.058;5.378;2023-05-18T08:06:21;15.40;99.90
44229;DHT22;29904;51.058;5.378;2023-05-18T08:08:47;15.30;99.90
44229;DHT22;29904;51.058;5.378;2023-05-18T08:11:12;15.40;99.90
44229;DHT22;29904;51.058;5.378;2023-05-18T08:13:38;15.60;99.90
44229;DHT22;29904;51.058;5.378;2023-05-18T08:16:04;15.70;99.90
44229;DHT22;29904;51.058;5.378;2023-05-18T08:18:30;15.70;99.90
44229;DHT22;29904;51.058;5.378;2023-05-18T08:20:56;15.90;99.90
44229;DHT22;29904;51.058;5.378;2023-05-18T08:23:23;16.00;99.90
44229;DHT22;29904;51.058;5.378;2023-05-18T08:25:49;15.90;99.90
44229;DHT22;29904;51.058;5.378;2023-05-18T08:28:15;15.90;99.90
44229;DHT22;29904;51.058;5.378;2023-05-18T08:30:41;15.90;99.90
44229;DHT22;29904;51.058;5.378;2023-05-18T08:33:07;15.90;99.90
44229;DHT22;29904;51.058;5.378;2023-05-18T08:35:33;16.10;99.90
44229;DHT22;29904;51.058;5.378;2023-05-18T08:37:59;16.30;99.90
44229;DHT22;29904;51.058;5.378;2023-05-18T08:40:36;16.30;99.90
44229;DHT22;29904;51.058;5.378;2023-05-18T08:43:06;16.40;99.90
44229;DHT22;29904;51.058;5.378;2023-05-18T08:45:51;16.50;99.90
44229;DHT22;29904;51.058;5.378;2023-05-18T08:48:21;16.60;99.90
44229;DHT22;29904;51.058;5.378;2023-05-18T08:50:48;17.00;99.90
44229;DHT22;29904;51.058;5.378;2023-05-18T08:53:17;17.40;99.90
44229;DHT22;29904;51.058;5.378;2023-05-18T08:55:45;17.60;99.90
44229;DHT22;29904;51.058;5.378;2023-05-18T08:58:13;17.80;99.90
44229;DHT22;29904;51.058;5.378;2023-05-18T09:00:41;17.70;99.90
44229;DHT22;29904;51.058;5.378;2023-05-18T09:03:07;17.60;99.90
44229;DHT22;29904;51.058;5.378;2023-05-18T09:05:33;17.70;99.90
44229;DHT22;29904;51.058;5.378;2023-05-18T09:07:59;17.40;99.90
44229;DHT22;29904;51.058;5.378;2023-05-18T09:10:25;17.10;99.90
44229;DHT22;29904;51.058;5.378;2023-05-18T09:12:51;16.90;99.90
44229;DHT22;29904;51.058;5.378;2023-05-18T09:15:19;17.10;99.90
44229;DHT22;29904;51.058;5.378;2023-05-18T09:17:46;17.10;99.90
44229;DHT22;29904;51.058;5.378;2023-05-18T09:20:12;17.00;99.90
44229;DHT22;29904;51.058;5.378;2023-05-18T09:22:38;17.10;99.90
44229;DHT22;29904;51.058;5.378;2023-05-18T09:25:09;17.10;99.90
44229;DHT22;29904;51.058;5.378;2023-05-18T09:27:36;17.10;99.90
44229;DHT22;29904;51.058;5.378;2023-05-18T09:30:02;16.80;99.90
44229;DHT22;29904;51.058;5.378;2023-05-18T09:32:33;16.30;99.90
44229;DHT22;29904;51.058;5.378;2023-05-18T09:35:07;16.20;99.90
44229;DHT22;29904;51.058;5.378;2023-05-18T09:37:33;16.20;99.90
44229;DHT22;29904;51.058;5.378;2023-05-18T09:40:00;16.50;99.90
44229;DHT22;29904;51.058;5.378;2023-05-18T09:42:36;16.90;99.90
44229;DHT22;29904;51.058;5.378;2023-05-18T09:45:15;17.40;99.90
44229;DHT22;29904;51.058;5.378;2023-05-18T09:47:42;17.50;99.90
44229;DHT22;29904;51.058;5.378;2023-05-18T09:50:08;17.80;99.90
44229;DHT22;29904;51.058;5.378;2023-05-18T09:52:44;17.50;99.90
44229;DHT22;29904;51.058;5.378;2023-05-18T09:55:19;17.30;99.90
44229;DHT22;29904;51.058;5.378;2023-05-18T09:57:46;17.30;99.90
44229;DHT22;29904;51.058;5.378;2023-05-18T10:00:17;17.30;99.90
44229;DHT22;29904;51.058;5.378;2023-05-18T10:02:46;17.50;99.90
44229;DHT22;29904;51.058;5.378;2023-05-18T10:05:27;17.80;99.90
44229;DHT22;29904;51.058;5.378;2023-05-18T10:07:56;18.00;99.90
44229;DHT22;29904;51.058;5.378;2023-05-18T10:10:25;18.00;99.90
44229;DHT22;29904;51.058;5.378;2023-05-18T10:12:52;18.20;99.90
44229;DHT22;29904;51.058;5.378;2023-05-18T10:15:20;18.10;99.90
44229;DHT22;29904;51.058;5.378;2023-05-18T10:17:47;17.90;99.90
44229;DHT22;29904;51.058;5.378;2023-05-18T10:20:17;17.80;99.90
44229;DHT22;29904;51.058;5.378;2023-05-18T10:22:45;17.70;99.90
44229;DHT22;29904;51.058;5.378;2023-05-18T10:25:15;17.50;99.90
44229;DHT22;29904;51.058;5.378;2023-05-18T10:27:43;17.50;99.90
44229;DHT22;29904;51.058;5.378;2023-05-18T10:30:09;17.40;99.90
44229;DHT22;29904;51.058;5.378;2023-05-18T10:32:37;17.70;99.90
44229;DHT22;29904;51.058;5.378;2023-05-18T10:35:04;17.90;99.90
44229;DHT22;29904;51.058;5.378;2023-05-18T10:37:32;18.00;99.90
44229;DHT22;29904;51.058;5.378;2023-05-18T10:40:01;17.90;99.90
44229;DHT22;29904;51.058;5.378;2023-05-18T10:42:29;18.00;99.90
44229;DHT22;29904;51.058;5.378;2023-05-18T10:44:56;18.00;99.90
44229;DHT22;29904;51.058;5.378;2023-05-18T10:47:23;18.10;99.90
44229;DHT22;29904;51.058;5.378;2023-05-18T10:49:51;17.90;99.90
44229;DHT22;29904;51.058;5.378;2023-05-18T10:52:17;17.50;99.90
44229;DHT22;29904;51.058;5.378;2023-05-18T10:54:43;17.50;99.90
44229;DHT22;29904;51.058;5.378;2023-05-18T10:57:17;17.80;99.90
44229;DHT22;29904;51.058;5.378;2023-05-18T10:59:45;18.10;99.90
44229;DHT22;29904;51.058;5.378;2023-05-18T11:02:14;18.20;99.90
44229;DHT22;29904;51.058;5.378;2023-05-18T11:04:41;18.50;99.90
44229;DHT22;29904;51.058;5.378;2023-05-18T11:07:11;18.80;99.90
44229;DHT22;29904;51.058;5.378;2023-05-18T11:09:41;18.90;99.90
44229;DHT22;29904;51.058;5.378;2023-05-18T11:12:15;19.10;99.90
44229;DHT22;29904;51.058;5.378;2023-05-18T11:14:52;18.90;99.90
44229;DHT22;29904;51.058;5.378;2023-05-18T11:17:23;18.60;99.90
44229;DHT22;29904;51.058;5.378;2023-05-18T11:25:41;18.40;99.90
44229;DHT22;29904;51.058;5.378;2023-05-18T11:28:10;18.70;99.90
44229;DHT22;29904;51.058;5.378;2023-05-18T11:33:12;18.80;99.90
44229;DHT22;29904;51.058;5.378;2023-05-18T11:35:59;18.80;99.90
44229;DHT22;29904;51.058;5.378;2023-05-18T11:38:46;18.60;99.90
44229;DHT22;29904;51.058;5.378;2023-05-18T11:41:34;18.40;99.90
44229;DHT22;29904;51.058;5.378;2023-05-18T11:49:28;19.00;99.90
44229;DHT22;29904;51.058;5.378;2023-05-18T11:54:42;19.00;99.90
44229;DHT22;29904;51.058;5.378;2023-05-18T11:57:09;18.80;99.90
44229;DHT22;29904;51.058;5.378;2023-05-18T11:59:43;18.70;99.90
44229;DHT22;29904;51.058;5.378;2023-05-18T12:02:12;18.60;99.90
44229;DHT22;29904;51.058;5.378;2023-05-18T12:04:58;18.90;99.90
44229;DHT22;29904;51.058;5.378;2023-05-18T12:07:25;18.90;99.90
44229;DHT22;29904;51.058;5.378;2023-05-18T12:10:12;18.60;99.90
44229;DHT22;29904;51.058;5.378;2023-05-18T12:12:41;18.80;99.90
44229;DHT22;29904;51.058;5.378;2023-05-18T12:15:09;18.90;99.90
44229;DHT22;29904;51.058;5.378;2023-05-18T12:17:43;18.80;99.90
44229;DHT22;29904;51.058;5.378;2023-05-18T12:20:19;18.60;99.90
44229;DHT22;29904;51.058;5.378;2023-05-18T12:22:49;18.70;99.90
44229;DHT22;29904;51.058;5.378;2023-05-18T12:25:16;18.60;99.90
44229;DHT22;29904;51.058;5.378;2023-05-18T12:27:44;18.50;99.90
44229;DHT22;29904;51.058;5.378;2023-05-18T12:30:12;18.30;99.90
44229;DHT22;29904;51.058;5.378;2023-05-18T12:32:49;18.10;99.90
44229;DHT22;29904;51.058;5.378;2023-05-18T12:35:15;18.00;99.90
44229;DHT22;29904;51.058;5.378;2023-05-18T12:37:42;18.10;99.90
44229;DHT22;29904;51.058;5.378;2023-05-18T12:40:09;18.30;99.90
44229;DHT22;29904;51.058;5.378;2023-05-18T12:42:35;18.50;99.90
44229;DHT22;29904;51.058;5.378;2023-05-18T12:45:01;18.60;99.90
44229;DHT22;29904;51.058;5.378;2023-05-18T12:47:31;18.90;99.90
44229;DHT22;29904;51.058;5.378;2023-05-18T12:50:00;19.00;99.90
44229;DHT22;29904;51.058;5.378;2023-05-18T12:52:27;18.80;99.90
44229;DHT22;29904;51.058;5.378;2023-05-18T12:54:56;18.60;99.90
44229;DHT22;29904;51.058;5.378;2023-05-18T12:57:28;18.90;99.90
44229;DHT22;29904;51.058;5.378;2023-05-18T12:59:59;19.20;99.90
44229;DHT22;29904;51.058;5.378;2023-05-18T13:02:36;19.60;99.90
44229;DHT22;29904;51.058;5.378;2023-05-18T13:05:02;19.40;99.90
44229;DHT22;29904;51.058;5.378;2023-05-18T13:07:28;18.90;99.90
44229;DHT22;29904;51.058;5.378;2023-05-18T13:10:00;18.60;99.90
44229;DHT22;29904;51.058;5.378;2023-05-18T13:12:40;18.30;99.90
44229;DHT22;29904;51.058;5.378;2023-05-18T13:15:23;18.20;99.90
44229;DHT22;29904;51.058;5.378;2023-05-18T13:20:22;18.50;99.90
44229;DHT22;29904;51.058;5.378;2023-05-18T13:22:50;18.60;99.90
44229;DHT22;29904;51.058;5.378;2023-05-18T13:25:16;18.40;99.90
44229;DHT22;29904;51.058;5.378;2023-05-18T13:27:42;18.20;99.90
44229;DHT22;29904;51.058;5.378;2023-05-18T13:30:13;18.20;99.90
44229;DHT22;29904;51.058;5.378;2023-05-18T13:32:38;18.30;99.90
44229;DHT22;29904;51.058;5.378;2023-05-18T13:35:04;17.90;99.90
44229;DHT22;29904;51.058;5.378;2023-05-18T13:37:30;17.80;99.90
44229;DHT22;29904;51.058;5.378;2023-05-18T13:39:56;17.80;99.90
44229;DHT22;29904;51.058;5.378;2023-05-18T13:42:22;17.90;99.90
44229;DHT22;29904;51.058;5.378;2023-05-18T13:44:47;17.90;99.90
44229;DHT22;29904;51.058;5.378;2023-05-18T13:47:13;17.90;99.90
44229;DHT22;29904;51.058;5.378;2023-05-18T13:49:39;17.80;99.90
44229;DHT22;29904;51.058;5.378;2023-05-18T13:52:04;17.80;99.90
44229;DHT22;29904;51.058;5.378;2023-05-18T13:54:30;17.80;99.90
44229;DHT22;29904;51.058;5.378;2023-05-18T13:56:56;17.60;99.90
44229;DHT22;29904;51.058;5.378;2023-05-18T13:59:22;17.70;99.90
44229;DHT22;29904;51.058;5.378;2023-05-18T14:01:47;17.80;99.90
44229;DHT22;29904;51.058;5.378;2023-05-18T14:04:13;18.00;99.90
44229;DHT22;29904;51.058;5.378;2023-05-18T14:06:39;18.20;99.90
44229;DHT22;29904;51.058;5.378;2023-05-18T14:09:05;18.30;99.90
44229;DHT22;29904;51.058;5.378;2023-05-18T14:11:30;18.60;99.90
44229;DHT22;29904;51.058;5.378;2023-05-18T14:14:01;18.90;99.90
44229;DHT22;29904;51.058;5.378;2023-05-18T14:16:27;19.00;99.90
44229;DHT22;29904;51.058;5.378;2023-05-18T14:18:54;19.20;99.90
44229;DHT22;29904;51.058;5.378;2023-05-18T14:21:20;19.20;99.90
44229;DHT22;29904;51.058;5.378;2023-05-18T14:23:45;19.30;99.90
44229;DHT22;29904;51.058;5.378;2023-05-18T14:26:12;19.60;99.90
44229;DHT22;29904;51.058;5.378;2023-05-18T14:28:38;19.30;99.90
44229;DHT22;29904;51.058;5.378;2023-05-18T14:31:03;19.40;99.90
44229;DHT22;29904;51.058;5.378;2023-05-18T14:33:29;19.50;99.90
44229;DHT22;29904;51.058;5.378;2023-05-18T14:35:55;19.40;99.90
44229;DHT22;29904;51.058;5.378;2023-05-18T14:38:22;19.40;99.90
44229;DHT22;29904;51.058;5.378;2023-05-18T14:40:51;19.40;99.90
44229;DHT22;29904;51.058;5.378;2023-05-18T14:43:17;19.60;99.90
44229;DHT22;29904;51.058;5.378;2023-05-18T14:45:43;19.50;99.90
44229;DHT22;29904;51.058;5.378;2023-05-18T14:48:08;19.40;99.90
44229;DHT22;29904;51.058;5.378;2023-05-18T14:50:36;19.10;99.90
44229;DHT22;29904;51.058;5.378;2023-05-18T14:53:01;19.00;99.90
44229;DHT22;29904;51.058;5.378;2023-05-18T14:55:27;18.90;99.90
44229;DHT22;29904;51.058;5.378;2023-05-18T14:57:53;19.10;99.90
44229;DHT22;29904;51.058;5.378;2023-05-18T15:00:19;19.40;99.90
44229;DHT22;29904;51.058;5.378;2023-05-18T15:02:45;19.40;99.90
44229;DHT22;29904;51.058;5.378;2023-05-18T15:05:10;19.20;99.90
44229;DHT22;29904;51.058;5.378;2023-05-18T15:07:36;18.80;99.90
44229;DHT22;29904;51.058;5.378;2023-05-18T15:10:02;18.70;99.90
44229;DHT22;29904;51.058;5.378;2023-05-18T15:12:28;18.80;99.90
44229;DHT22;29904;51.058;5.378;2023-05-18T15:14:54;18.80;99.90
44229;DHT22;29904;51.058;5.378;2023-05-18T15:17:20;18.80;99.90
44229;DHT22;29904;51.058;5.378;2023-05-18T15:19:46;18.60;99.90
44229;DHT22;29904;51.058;5.378;2023-05-18T15:22:12;18.60;99.90
44229;DHT22;29904;51.058;5.378;2023-05-18T15:24:37;18.50;99.90
44229;DHT22;29904;51.058;5.378;2023-05-18T15:27:03;18.50;99.90
44229;DHT22;29904;51.058;5.378;2023-05-18T15:29:29;18.70;99.90
44229;DHT22;29904;51.058;5.378;2023-05-18T15:31:55;18.90;99.90
44229;DHT22;29904;51.058;5.378;2023-05-18T15:34:21;18.90;99.90
44229;DHT22;29904;51.058;5.378;2023-05-18T15:36:47;19.00;99.90
44229;DHT22;29904;51.058;5.378;2023-05-18T15:39:13;18.90;99.90
44229;DHT22;29904;51.058;5.378;2023-05-18T15:41:38;18.90;99.90
44229;DHT22;29904;51.058;5.378;2023-05-18T15:44:04;18.70;99.90
44229;DHT22;29904;51.058;5.378;2023-05-18T15:46:31;18.60;99.90
44229;DHT22;29904;51.058;5.378;2023-05-18T15:48:59;18.60;99.90
44229;DHT22;29904;51.058;5.378;2023-05-18T15:51:24;18.60;99.90
44229;DHT22;29904;51.058;5.378;2023-05-18T15:53:50;18.60;99.90
44229;DHT22;29904;51.058;5.378;2023-05-18T15:56:16;18.50;99.90
44229;DHT22;29904;51.058;5.378;2023-05-18T15:58:43;18.30;99.90
44229;DHT22;29904;51.058;5.378;2023-05-18T16:01:09;18.30;99.90
44229;DHT22;29904;51.058;5.378;2023-05-18T16:03:35;17.00;99.90
44229;DHT22;29904;51.058;5.378;2023-05-18T16:06:01;18.30;99.90
44229;DHT22;29904;51.058;5.378;2023-05-18T16:08:27;18.30;99.90